Terminal Aerodrome Forecast
Issued by NWS Shreveport, LA

Home | Current Version | Previous Version | Text Only | Print | Product List | Glossary On
Versions: 1 2 3 4 5 6 7 8 9 10 11 12 13 14 15 16 17 18 19 20 21 22 23 24
000
FTUS44 KSHV 020520
TAFMLU
TAF
KMLU 020520Z 0206/0306 VRB04KT P6SM SCT025 BKN040
      TEMPO 0208/0211 BKN020
     FM021100 VRB03KT 6SM BR VCTS SCT008 BKN015CB
      TEMPO 0211/0215 3SM TSRA BR OVC007CB
     FM021500 35007KT 5SM TSRA BR BKN013CB
     FM022100 35009KT P6SM VCTS BKN020CB
     FM030000 34005KT P6SM SCT030 BKN040=

USA.gov is the U.S. government's official web portal to all federal, state and local government web resources and services.